This is the latest recevied weather packets stored in our database for station/object KJ6BBX. If no packets are shown the sender has not sent any weather packets the latest 1 day(s).
| Time | Temp. | Humidity | Pressure | Rain* | Wind** | Luminosity | Snow |
|---|---|---|---|---|---|---|---|
| 1778096114 | 23.89° C | 53% | 1009.5 hPa | 0 mm | - | 599 W/m² | - |
| 1778095215 | 23.89° C | 53% | 1009.7 hPa | 0 mm | - | 612 W/m² | - |
| 1778093415 | 21.67° C | 57% | 1009.9 hPa | 0 mm | - | 569 W/m² | - |
| 1778091616 | 22.22° C | 58% | 1010 hPa | 0 mm | - | 585 W/m² | - |
| 1778089815 | 21.11° C | 59% | 1010.6 hPa | 0 mm | - | 322 W/m² | - |
| 1778088014 | 20° C | 64% | 1010.3 hPa | 0 mm | - | 570 W/m² | - |
| 1778086215 | 18.89° C | 68% | 1010.3 hPa | 0 mm | - | 518 W/m² | - |
| 1778081714 | 15° C | 81% | 1010.4 hPa | 0 mm | - | 247 W/m² | - |
| 1778079915 | 13.89° C | 86% | 1010.5 hPa | 0 mm | - | 47 W/m² | - |
| 1778079014 | 13.33° C | 87% | 1010.2 hPa | 0 mm | - | 38 W/m² | - |
| 1778078114 | 12.78° C | 89% | 1010.5 hPa | 0 mm | - | 34 W/m² | - |
| 1778077214 | 11.67° C | 95% | 1010.4 hPa | 0 mm | - | 28 W/m² | - |
| 1778074514 | 10° C | 96% | 1010 hPa | 0 mm | - | 13 W/m² | - |
| 1778072715 | 10° C | 96% | 1009.9 hPa | 0 mm | - | 2 W/m² | - |
| 1778069115 | 10° C | 94% | 1009.1 hPa | 0 mm | - | 0 W/m² | - |
| 1778065514 | 10° C | 90% | 1009.2 hPa | 0 mm | - | 0 W/m² | - |
| 1778063714 | 10.56° C | 90% | 1009.2 hPa | 0 mm | - | 0 W/m² | - |
| 1778062815 | 10° C | 89% | 1009.3 hPa | 0 mm | - | 0 W/m² | - |
| 1778061914 | 10° C | 88% | 1009.4 hPa | 0 mm | - | 0 W/m² | - |
| 1778061014 | 10.56° C | 88% | 1009.3 hPa | 0 mm | - | 0 W/m² | - |
| 1778060114 | 10.56° C | 87% | 1009.3 hPa | 0 mm | - | 0 W/m² | - |
| 1778058315 | 10.56° C | 86% | 1009.4 hPa | 0 mm | - | 0 W/m² | - |
| 1778057414 | 11.11° C | 83% | 1009.6 hPa | 0 mm | - | 0 W/m² | - |
| 1778056517 | 11.67° C | 84% | 1009.4 hPa | 0 mm | - | 0 W/m² | - |
| 1778055614 | 11.11° C | 84% | 1009.6 hPa | 0 mm | - | 0 W/m² | - |
* Rain since midnight (hover to see other rain measurements)
** Current wind speed in m/s (hover to see current wind gust speed)